sensor_id;sensor_type;location;lat;lon;timestamp;P1;durP1;ratioP1;P2;durP2;ratioP2
33010;SDS011;19370;48.562;9.196;2023-12-04T00:27:53;19.95;;;9.15;;
33010;SDS011;19370;48.562;9.196;2023-12-04T00:30:18;20.67;;;10.17;;
33010;SDS011;19370;48.562;9.196;2023-12-04T00:32:44;19.52;;;9.63;;
33010;SDS011;19370;48.562;9.196;2023-12-04T00:35:09;19.47;;;9.47;;
33010;SDS011;19370;48.562;9.196;2023-12-04T00:37:35;17.43;;;9.10;;
33010;SDS011;19370;48.562;9.196;2023-12-04T00:42:33;22.38;;;10.32;;
33010;SDS011;19370;48.562;9.196;2023-12-04T00:44:59;21.13;;;9.63;;
33010;SDS011;19370;48.562;9.196;2023-12-04T00:47:28;20.70;;;9.65;;
33010;SDS011;19370;48.562;9.196;2023-12-04T00:49:54;19.90;;;9.63;;
33010;SDS011;19370;48.562;9.196;2023-12-04T00:52:20;20.73;;;10.20;;
33010;SDS011;19370;48.562;9.196;2023-12-04T00:54:45;18.57;;;8.87;;
33010;SDS011;19370;48.562;9.196;2023-12-04T00:57:11;19.88;;;9.00;;
33010;SDS011;19370;48.562;9.196;2023-12-04T00:59:36;18.60;;;9.23;;
33010;SDS011;19370;48.562;9.196;2023-12-04T01:02:02;17.77;;;9.33;;
33010;SDS011;19370;48.562;9.196;2023-12-04T01:04:28;18.65;;;9.05;;
33010;SDS011;19370;48.562;9.196;2023-12-04T01:06:59;19.55;;;9.05;;
33010;SDS011;19370;48.562;9.196;2023-12-04T01:11:59;18.52;;;9.05;;
33010;SDS011;19370;48.562;9.196;2023-12-04T01:14:25;18.07;;;8.50;;
33010;SDS011;19370;48.562;9.196;2023-12-04T01:16:50;19.88;;;9.10;;
33010;SDS011;19370;48.562;9.196;2023-12-04T01:19:16;17.93;;;9.13;;
33010;SDS011;19370;48.562;9.196;2023-12-04T01:21:50;17.92;;;8.88;;
33010;SDS011;19370;48.562;9.196;2023-12-04T01:24:18;17.60;;;7.83;;
33010;SDS011;19370;48.562;9.196;2023-12-04T01:26:49;19.73;;;8.20;;
33010;SDS011;19370;48.562;9.196;2023-12-04T01:29:16;19.20;;;8.93;;
33010;SDS011;19370;48.562;9.196;2023-12-04T01:31:41;17.48;;;8.98;;
33010;SDS011;19370;48.562;9.196;2023-12-04T01:34:07;19.57;;;9.13;;
33010;SDS011;19370;48.562;9.196;2023-12-04T01:36:34;18.50;;;9.10;;
33010;SDS011;19370;48.562;9.196;2023-12-04T01:39:01;18.85;;;8.55;;
33010;SDS011;19370;48.562;9.196;2023-12-04T01:41:30;19.30;;;9.10;;
33010;SDS011;19370;48.562;9.196;2023-12-04T01:43:56;19.63;;;8.35;;
33010;SDS011;19370;48.562;9.196;2023-12-04T01:46:21;18.17;;;8.87;;
33010;SDS011;19370;48.562;9.196;2023-12-04T01:48:48;20.05;;;9.02;;
33010;SDS011;19370;48.562;9.196;2023-12-04T01:51:15;16.97;;;8.47;;
33010;SDS011;19370;48.562;9.196;2023-12-04T01:56:13;18.75;;;9.50;;
33010;SDS011;19370;48.562;9.196;2023-12-04T01:58:40;19.25;;;8.73;;
33010;SDS011;19370;48.562;9.196;2023-12-04T02:01:10;17.30;;;8.77;;
33010;SDS011;19370;48.562;9.196;2023-12-04T02:03:37;19.17;;;9.10;;
33010;SDS011;19370;48.562;9.196;2023-12-04T02:06:10;17.10;;;7.80;;
33010;SDS011;19370;48.562;9.196;2023-12-04T02:08:42;18.13;;;8.38;;
33010;SDS011;19370;48.562;9.196;2023-12-04T02:11:11;18.15;;;8.23;;
33010;SDS011;19370;48.562;9.196;2023-12-04T02:13:37;20.20;;;9.05;;
33010;SDS011;19370;48.562;9.196;2023-12-04T02:18:34;18.77;;;8.75;;
33010;SDS011;19370;48.562;9.196;2023-12-04T02:21:01;19.00;;;8.52;;
33010;SDS011;19370;48.562;9.196;2023-12-04T02:23:27;20.10;;;8.67;;
33010;SDS011;19370;48.562;9.196;2023-12-04T02:25:54;18.70;;;9.32;;
33010;SDS011;19370;48.562;9.196;2023-12-04T02:28:26;21.73;;;9.95;;
33010;SDS011;19370;48.562;9.196;2023-12-04T02:30:59;21.27;;;9.98;;
33010;SDS011;19370;48.562;9.196;2023-12-04T02:33:27;21.65;;;10.52;;
33010;SDS011;19370;48.562;9.196;2023-12-04T02:35:54;22.17;;;11.07;;
33010;SDS011;19370;48.562;9.196;2023-12-04T02:38:23;22.60;;;10.80;;
33010;SDS011;19370;48.562;9.196;2023-12-04T05:47:14;17.83;;;8.80;;
33010;SDS011;19370;48.562;9.196;2023-12-04T05:49:40;23.90;;;9.93;;
33010;SDS011;19370;48.562;9.196;2023-12-04T05:52:06;19.05;;;9.35;;
33010;SDS011;19370;48.562;9.196;2023-12-04T05:54:32;19.52;;;8.93;;
33010;SDS011;19370;48.562;9.196;2023-12-04T05:56:57;20.13;;;9.15;;
33010;SDS011;19370;48.562;9.196;2023-12-04T05:59:23;18.43;;;9.57;;
33010;SDS011;19370;48.562;9.196;2023-12-04T06:01:49;19.85;;;9.23;;
33010;SDS011;19370;48.562;9.196;2023-12-04T06:04:14;16.97;;;8.50;;
33010;SDS011;19370;48.562;9.196;2023-12-04T06:06:40;19.43;;;9.37;;
33010;SDS011;19370;48.562;9.196;2023-12-04T06:09:05;19.23;;;9.18;;
33010;SDS011;19370;48.562;9.196;2023-12-04T06:11:31;20.53;;;9.17;;
33010;SDS011;19370;48.562;9.196;2023-12-04T06:13:58;17.23;;;8.43;;
33010;SDS011;19370;48.562;9.196;2023-12-04T06:16:23;18.23;;;9.03;;
33010;SDS011;19370;48.562;9.196;2023-12-04T06:18:49;20.83;;;10.00;;
33010;SDS011;19370;48.562;9.196;2023-12-04T06:21:15;19.30;;;9.43;;
33010;SDS011;19370;48.562;9.196;2023-12-04T06:23:40;18.58;;;8.70;;
33010;SDS011;19370;48.562;9.196;2023-12-04T06:26:06;17.47;;;8.23;;
33010;SDS011;19370;48.562;9.196;2023-12-04T06:28:33;19.15;;;9.38;;
33010;SDS011;19370;48.562;9.196;2023-12-04T06:30:59;21.33;;;11.07;;
33010;SDS011;19370;48.562;9.196;2023-12-04T06:33:25;22.93;;;10.53;;
33010;SDS011;19370;48.562;9.196;2023-12-04T06:35:53;20.92;;;9.82;;
33010;SDS011;19370;48.562;9.196;2023-12-04T06:38:28;22.45;;;11.73;;
33010;SDS011;19370;48.562;9.196;2023-12-04T06:41:21;24.53;;;11.50;;
33010;SDS011;19370;48.562;9.196;2023-12-04T06:43:47;27.77;;;14.77;;
33010;SDS011;19370;48.562;9.196;2023-12-04T06:46:13;23.83;;;11.98;;
33010;SDS011;19370;48.562;9.196;2023-12-04T06:48:40;23.95;;;11.27;;
33010;SDS011;19370;48.562;9.196;2023-12-04T06:51:08;23.17;;;11.43;;
33010;SDS011;19370;48.562;9.196;2023-12-04T06:53:33;22.80;;;11.77;;
33010;SDS011;19370;48.562;9.196;2023-12-04T06:55:59;22.40;;;11.70;;
33010;SDS011;19370;48.562;9.196;2023-12-04T06:58:24;23.43;;;10.97;;
33010;SDS011;19370;48.562;9.196;2023-12-04T07:00:50;23.05;;;12.07;;
33010;SDS011;19370;48.562;9.196;2023-12-04T07:03:16;24.97;;;11.93;;
33010;SDS011;19370;48.562;9.196;2023-12-04T07:05:41;25.05;;;12.20;;
33010;SDS011;19370;48.562;9.196;2023-12-04T07:08:07;23.23;;;11.53;;
33010;SDS011;19370;48.562;9.196;2023-12-04T07:10:32;23.90;;;12.73;;
33010;SDS011;19370;48.562;9.196;2023-12-04T07:12:58;32.67;;;15.25;;
33010;SDS011;19370;48.562;9.196;2023-12-04T07:15:24;28.27;;;14.53;;
33010;SDS011;19370;48.562;9.196;2023-12-04T07:17:49;23.27;;;10.97;;
33010;SDS011;19370;48.562;9.196;2023-12-04T07:20:15;26.88;;;13.25;;
33010;SDS011;19370;48.562;9.196;2023-12-04T07:22:40;25.27;;;12.90;;
33010;SDS011;19370;48.562;9.196;2023-12-04T07:25:06;28.05;;;13.52;;
33010;SDS011;19370;48.562;9.196;2023-12-04T07:27:32;26.77;;;13.03;;
33010;SDS011;19370;48.562;9.196;2023-12-04T07:29:59;29.05;;;13.70;;
33010;SDS011;19370;48.562;9.196;2023-12-04T07:32:24;22.67;;;12.02;;
33010;SDS011;19370;48.562;9.196;2023-12-04T07:34:50;22.13;;;10.63;;
33010;SDS011;19370;48.562;9.196;2023-12-04T07:37:16;20.00;;;10.30;;
33010;SDS011;19370;48.562;9.196;2023-12-04T07:39:43;19.95;;;9.45;;
33010;SDS011;19370;48.562;9.196;2023-12-04T07:42:14;20.58;;;10.70;;
33010;SDS011;19370;48.562;9.196;2023-12-04T07:45:08;19.00;;;9.80;;
33010;SDS011;19370;48.562;9.196;2023-12-04T07:47:35;21.40;;;9.82;;
33010;SDS011;19370;48.562;9.196;2023-12-04T07:50:01;18.55;;;9.50;;
33010;SDS011;19370;48.562;9.196;2023-12-04T07:52:26;18.70;;;9.73;;
33010;SDS011;19370;48.562;9.196;2023-12-04T07:54:52;21.27;;;10.25;;
33010;SDS011;19370;48.562;9.196;2023-12-04T07:57:18;22.27;;;10.83;;
33010;SDS011;19370;48.562;9.196;2023-12-04T07:59:44;21.88;;;10.98;;
33010;SDS011;19370;48.562;9.196;2023-12-04T08:02:09;21.13;;;11.40;;
33010;SDS011;19370;48.562;9.196;2023-12-04T08:04:35;21.77;;;11.38;;
33010;SDS011;19370;48.562;9.196;2023-12-04T08:07:01;22.60;;;11.20;;
33010;SDS011;19370;48.562;9.196;2023-12-04T08:09:27;24.38;;;12.23;;
33010;SDS011;19370;48.562;9.196;2023-12-04T08:11:52;23.40;;;11.50;;
33010;SDS011;19370;48.562;9.196;2023-12-04T08:14:18;20.80;;;11.18;;
33010;SDS011;19370;48.562;9.196;2023-12-04T08:16:44;21.17;;;10.50;;
33010;SDS011;19370;48.562;9.196;2023-12-04T08:19:09;22.07;;;11.40;;
33010;SDS011;19370;48.562;9.196;2023-12-04T08:21:35;22.30;;;10.70;;
33010;SDS011;19370;48.562;9.196;2023-12-04T08:24:00;23.83;;;11.27;;
33010;SDS011;19370;48.562;9.196;2023-12-04T08:26:26;21.23;;;10.90;;
33010;SDS011;19370;48.562;9.196;2023-12-04T08:28:52;21.27;;;11.20;;
33010;SDS011;19370;48.562;9.196;2023-12-04T08:31:17;24.60;;;12.93;;
33010;SDS011;19370;48.562;9.196;2023-12-04T08:33:43;23.08;;;12.45;;
33010;SDS011;19370;48.562;9.196;2023-12-04T08:36:10;25.53;;;11.30;;
33010;SDS011;19370;48.562;9.196;2023-12-04T08:38:36;23.73;;;11.38;;
33010;SDS011;19370;48.562;9.196;2023-12-04T08:41:03;23.77;;;12.65;;
33010;SDS011;19370;48.562;9.196;2023-12-04T08:43:29;25.07;;;11.83;;
33010;SDS011;19370;48.562;9.196;2023-12-04T08:45:54;23.65;;;11.63;;
33010;SDS011;19370;48.562;9.196;2023-12-04T08:48:20;23.43;;;11.47;;
33010;SDS011;19370;48.562;9.196;2023-12-04T08:50:45;23.88;;;11.35;;
33010;SDS011;19370;48.562;9.196;2023-12-04T08:53:11;21.58;;;11.55;;
33010;SDS011;19370;48.562;9.196;2023-12-04T08:55:37;25.75;;;12.23;;
33010;SDS011;19370;48.562;9.196;2023-12-04T08:58:03;23.27;;;10.73;;
33010;SDS011;19370;48.562;9.196;2023-12-04T09:00:29;21.65;;;10.43;;
33010;SDS011;19370;48.562;9.196;2023-12-04T09:02:54;20.67;;;10.10;;
33010;SDS011;19370;48.562;9.196;2023-12-04T09:05:20;22.30;;;10.45;;
33010;SDS011;19370;48.562;9.196;2023-12-04T09:14:24;19.00;;;9.93;;
33010;SDS011;19370;48.562;9.196;2023-12-04T09:16:49;22.30;;;10.93;;
33010;SDS011;19370;48.562;9.196;2023-12-04T09:19:15;19.17;;;9.07;;
33010;SDS011;19370;48.562;9.196;2023-12-04T09:21:41;16.10;;;7.65;;
33010;SDS011;19370;48.562;9.196;2023-12-04T09:39:34;24.10;;;12.27;;
33010;SDS011;19370;48.562;9.196;2023-12-04T09:42:00;24.73;;;12.27;;
33010;SDS011;19370;48.562;9.196;2023-12-04T09:44:27;21.42;;;10.13;;
33010;SDS011;19370;48.562;9.196;2023-12-04T09:53:22;20.95;;;10.52;;
33010;SDS011;19370;48.562;9.196;2023-12-04T09:55:56;22.13;;;11.20;;
33010;SDS011;19370;48.562;9.196;2023-12-04T09:58:24;21.50;;;10.80;;
33010;SDS011;19370;48.562;9.196;2023-12-04T10:00:53;21.27;;;10.03;;
33010;SDS011;19370;48.562;9.196;2023-12-04T10:03:20;19.23;;;9.52;;
33010;SDS011;19370;48.562;9.196;2023-12-04T10:05:45;18.33;;;9.18;;
33010;SDS011;19370;48.562;9.196;2023-12-04T10:08:12;17.02;;;8.32;;
33010;SDS011;19370;48.562;9.196;2023-12-04T10:10:37;13.93;;;7.30;;
33010;SDS011;19370;48.562;9.196;2023-12-04T10:13:03;16.67;;;8.10;;
33010;SDS011;19370;48.562;9.196;2023-12-04T10:15:28;17.23;;;8.83;;
33010;SDS011;19370;48.562;9.196;2023-12-04T10:17:54;16.25;;;8.68;;
33010;SDS011;19370;48.562;9.196;2023-12-04T10:20:20;17.93;;;8.57;;
33010;SDS011;19370;48.562;9.196;2023-12-04T10:22:56;17.58;;;9.13;;
33010;SDS011;19370;48.562;9.196;2023-12-04T10:25:24;19.58;;;9.13;;
33010;SDS011;19370;48.562;9.196;2023-12-04T10:27:55;19.58;;;8.70;;
33010;SDS011;19370;48.562;9.196;2023-12-04T10:30:36;16.03;;;8.10;;
33010;SDS011;19370;48.562;9.196;2023-12-04T10:33:05;20.20;;;9.30;;
33010;SDS011;19370;48.562;9.196;2023-12-04T10:35:32;19.42;;;9.68;;
33010;SDS011;19370;48.562;9.196;2023-12-04T10:38:01;19.58;;;9.65;;
33010;SDS011;19370;48.562;9.196;2023-12-04T10:40:30;24.25;;;10.20;;
33010;SDS011;19370;48.562;9.196;2023-12-04T10:43:14;20.17;;;10.57;;
33010;SDS011;19370;48.562;9.196;2023-12-04T10:45:45;22.02;;;11.32;;
33010;SDS011;19370;48.562;9.196;2023-12-04T10:48:15;20.65;;;10.43;;
33010;SDS011;19370;48.562;9.196;2023-12-04T10:50:42;20.75;;;9.48;;
33010;SDS011;19370;48.562;9.196;2023-12-04T10:53:10;19.33;;;10.00;;
33010;SDS011;19370;48.562;9.196;2023-12-04T10:55:37;18.27;;;9.73;;
33010;SDS011;19370;48.562;9.196;2023-12-04T10:58:07;20.42;;;9.60;;
33010;SDS011;19370;48.562;9.196;2023-12-04T11:00:35;18.85;;;8.85;;
33010;SDS011;19370;48.562;9.196;2023-12-04T11:03:12;19.90;;;8.90;;
33010;SDS011;19370;48.562;9.196;2023-12-04T11:06:30;17.37;;;8.03;;
33010;SDS011;19370;48.562;9.196;2023-12-04T11:08:56;18.20;;;8.82;;
33010;SDS011;19370;48.562;9.196;2023-12-04T11:11:27;18.90;;;8.60;;
33010;SDS011;19370;48.562;9.196;2023-12-04T11:13:58;16.63;;;8.20;;
33010;SDS011;19370;48.562;9.196;2023-12-04T11:16:48;17.05;;;8.35;;
33010;SDS011;19370;48.562;9.196;2023-12-04T11:26:10;17.83;;;8.63;;
33010;SDS011;19370;48.562;9.196;2023-12-04T11:35:20;18.20;;;8.80;;
33010;SDS011;19370;48.562;9.196;2023-12-04T11:37:48;16.92;;;9.45;;
33010;SDS011;19370;48.562;9.196;2023-12-04T11:43:36;16.55;;;8.05;;
33010;SDS011;19370;48.562;9.196;2023-12-04T11:46:08;16.30;;;8.33;;
33010;SDS011;19370;48.562;9.196;2023-12-04T11:48:38;17.52;;;8.98;;
33010;SDS011;19370;48.562;9.196;2023-12-04T11:51:06;16.98;;;8.75;;
33010;SDS011;19370;48.562;9.196;2023-12-04T11:53:40;15.82;;;8.80;;
33010;SDS011;19370;48.562;9.196;2023-12-04T11:56:10;18.10;;;8.73;;
33010;SDS011;19370;48.562;9.196;2023-12-04T11:58:48;16.50;;;9.35;;
33010;SDS011;19370;48.562;9.196;2023-12-04T12:01:44;17.13;;;9.38;;
33010;SDS011;19370;48.562;9.196;2023-12-04T12:04:15;17.88;;;9.80;;
33010;SDS011;19370;48.562;9.196;2023-12-04T12:06:42;20.52;;;10.88;;
33010;SDS011;19370;48.562;9.196;2023-12-04T12:09:11;18.93;;;10.43;;
33010;SDS011;19370;48.562;9.196;2023-12-04T12:11:36;19.50;;;10.90;;
33010;SDS011;19370;48.562;9.196;2023-12-04T12:14:02;19.40;;;10.37;;
33010;SDS011;19370;48.562;9.196;2023-12-04T12:16:29;21.00;;;11.73;;
33010;SDS011;19370;48.562;9.196;2023-12-04T12:18:57;21.70;;;10.65;;
33010;SDS011;19370;48.562;9.196;2023-12-04T12:21:23;21.40;;;11.63;;
33010;SDS011;19370;48.562;9.196;2023-12-04T12:23:48;21.30;;;10.87;;
33010;SDS011;19370;48.562;9.196;2023-12-04T12:26:14;20.00;;;10.47;;
33010;SDS011;19370;48.562;9.196;2023-12-04T12:28:40;17.80;;;10.10;;
33010;SDS011;19370;48.562;9.196;2023-12-04T12:31:05;16.53;;;8.47;;
33010;SDS011;19370;48.562;9.196;2023-12-04T12:33:31;16.05;;;8.43;;
33010;SDS011;19370;48.562;9.196;2023-12-04T12:35:57;16.50;;;9.30;;
33010;SDS011;19370;48.562;9.196;2023-12-04T12:38:24;18.90;;;9.60;;
33010;SDS011;19370;48.562;9.196;2023-12-04T12:40:50;19.17;;;9.25;;
33010;SDS011;19370;48.562;9.196;2023-12-04T12:43:16;17.55;;;9.88;;
33010;SDS011;19370;48.562;9.196;2023-12-04T12:45:46;20.02;;;10.48;;
33010;SDS011;19370;48.562;9.196;2023-12-04T12:48:14;15.88;;;8.85;;
33010;SDS011;19370;48.562;9.196;2023-12-04T12:50:41;19.90;;;9.17;;
33010;SDS011;19370;48.562;9.196;2023-12-04T12:53:08;18.60;;;10.05;;
33010;SDS011;19370;48.562;9.196;2023-12-04T12:55:37;20.15;;;10.40;;
33010;SDS011;19370;48.562;9.196;2023-12-04T12:58:05;18.17;;;10.00;;
33010;SDS011;19370;48.562;9.196;2023-12-04T13:00:32;19.37;;;10.87;;
33010;SDS011;19370;48.562;9.196;2023-12-04T13:02:59;18.50;;;10.35;;
33010;SDS011;19370;48.562;9.196;2023-12-04T13:05:26;17.90;;;9.38;;
33010;SDS011;19370;48.562;9.196;2023-12-04T13:07:51;20.17;;;10.30;;
33010;SDS011;19370;48.562;9.196;2023-12-04T13:10:20;18.60;;;9.70;;
33010;SDS011;19370;48.562;9.196;2023-12-04T13:12:49;18.07;;;9.23;;
33010;SDS011;19370;48.562;9.196;2023-12-04T13:15:17;18.13;;;9.68;;
33010;SDS011;19370;48.562;9.196;2023-12-04T13:17:43;17.42;;;9.45;;
33010;SDS011;19370;48.562;9.196;2023-12-04T13:20:09;19.47;;;9.63;;
33010;SDS011;19370;48.562;9.196;2023-12-04T13:22:40;18.55;;;9.40;;
33010;SDS011;19370;48.562;9.196;2023-12-04T13:25:06;18.13;;;9.40;;
33010;SDS011;19370;48.562;9.196;2023-12-04T13:27:32;16.83;;;9.57;;
33010;SDS011;19370;48.562;9.196;2023-12-04T13:29:58;19.42;;;10.45;;
33010;SDS011;19370;48.562;9.196;2023-12-04T13:32:24;19.10;;;10.33;;
33010;SDS011;19370;48.562;9.196;2023-12-04T13:34:50;20.13;;;9.95;;
33010;SDS011;19370;48.562;9.196;2023-12-04T13:37:15;18.77;;;9.47;;
33010;SDS011;19370;48.562;9.196;2023-12-04T13:39:41;21.03;;;11.03;;
33010;SDS011;19370;48.562;9.196;2023-12-04T13:42:13;18.95;;;10.07;;
33010;SDS011;19370;48.562;9.196;2023-12-04T13:45:00;21.45;;;11.38;;
33010;SDS011;19370;48.562;9.196;2023-12-04T13:47:27;21.20;;;10.80;;
33010;SDS011;19370;48.562;9.196;2023-12-04T13:49:54;21.80;;;11.18;;
33010;SDS011;19370;48.562;9.196;2023-12-04T13:52:20;19.33;;;10.63;;
33010;SDS011;19370;48.562;9.196;2023-12-04T13:54:48;19.85;;;10.60;;
33010;SDS011;19370;48.562;9.196;2023-12-04T13:57:15;20.15;;;10.48;;
33010;SDS011;19370;48.562;9.196;2023-12-04T14:00:07;22.47;;;11.30;;
33010;SDS011;19370;48.562;9.196;2023-12-04T14:02:34;21.48;;;11.65;;
33010;SDS011;19370;48.562;9.196;2023-12-04T14:05:02;19.23;;;10.82;;
33010;SDS011;19370;48.562;9.196;2023-12-04T14:07:28;21.40;;;11.77;;
33010;SDS011;19370;48.562;9.196;2023-12-04T14:09:53;26.00;;;12.77;;
33010;SDS011;19370;48.562;9.196;2023-12-04T14:12:19;23.00;;;11.00;;
33010;SDS011;19370;48.562;9.196;2023-12-04T14:14:45;22.35;;;11.20;;
33010;SDS011;19370;48.562;9.196;2023-12-04T14:17:10;20.47;;;10.77;;
33010;SDS011;19370;48.562;9.196;2023-12-04T14:19:37;20.60;;;10.52;;
33010;SDS011;19370;48.562;9.196;2023-12-04T14:22:04;22.27;;;10.90;;
33010;SDS011;19370;48.562;9.196;2023-12-04T14:24:30;20.27;;;10.50;;
33010;SDS011;19370;48.562;9.196;2023-12-04T14:26:56;20.77;;;10.67;;
33010;SDS011;19370;48.562;9.196;2023-12-04T14:29:22;21.42;;;11.32;;
33010;SDS011;19370;48.562;9.196;2023-12-04T14:31:48;27.53;;;13.30;;
33010;SDS011;19370;48.562;9.196;2023-12-04T14:34:15;27.65;;;13.63;;
33010;SDS011;19370;48.562;9.196;2023-12-04T14:36:40;23.52;;;13.52;;
33010;SDS011;19370;48.562;9.196;2023-12-04T14:39:06;22.87;;;12.60;;
33010;SDS011;19370;48.562;9.196;2023-12-04T14:41:32;23.37;;;11.97;;
33010;SDS011;19370;48.562;9.196;2023-12-04T14:43:57;21.48;;;12.93;;
33010;SDS011;19370;48.562;9.196;2023-12-04T14:46:23;26.97;;;12.80;;
33010;SDS011;19370;48.562;9.196;2023-12-04T14:48:48;21.52;;;10.45;;
33010;SDS011;19370;48.562;9.196;2023-12-04T14:51:14;19.17;;;10.98;;
33010;SDS011;19370;48.562;9.196;2023-12-04T14:53:40;19.20;;;10.63;;
33010;SDS011;19370;48.562;9.196;2023-12-04T14:56:16;21.58;;;11.43;;
33010;SDS011;19370;48.562;9.196;2023-12-04T14:59:00;25.03;;;12.90;;
33010;SDS011;19370;48.562;9.196;2023-12-04T15:01:48;23.38;;;12.45;;
33010;SDS011;19370;48.562;9.196;2023-12-04T15:04:42;25.60;;;13.95;;
33010;SDS011;19370;48.562;9.196;2023-12-04T15:07:15;20.67;;;11.73;;
33010;SDS011;19370;48.562;9.196;2023-12-04T15:09:59;23.65;;;12.13;;
33010;SDS011;19370;48.562;9.196;2023-12-04T15:12:43;22.57;;;12.90;;
33010;SDS011;19370;48.562;9.196;2023-12-04T15:15:38;29.42;;;15.82;;
33010;SDS011;19370;48.562;9.196;2023-12-04T15:18:22;24.77;;;13.73;;
33010;SDS011;19370;48.562;9.196;2023-12-04T15:21:09;22.83;;;12.50;;
33010;SDS011;19370;48.562;9.196;2023-12-04T15:23:37;22.83;;;12.43;;
33010;SDS011;19370;48.562;9.196;2023-12-04T15:26:03;22.13;;;12.10;;
33010;SDS011;19370;48.562;9.196;2023-12-04T15:28:30;20.33;;;11.68;;
33010;SDS011;19370;48.562;9.196;2023-12-04T15:30:55;21.33;;;11.13;;
33010;SDS011;19370;48.562;9.196;2023-12-04T15:35:57;25.15;;;12.77;;
33010;SDS011;19370;48.562;9.196;2023-12-04T15:38:33;22.47;;;11.60;;
33010;SDS011;19370;48.562;9.196;2023-12-04T15:40:59;20.92;;;11.65;;
33010;SDS011;19370;48.562;9.196;2023-12-04T15:43:25;26.15;;;12.25;;
33010;SDS011;19370;48.562;9.196;2023-12-04T15:45:51;20.90;;;11.23;;
33010;SDS011;19370;48.562;9.196;2023-12-04T15:48:16;21.50;;;11.80;;
33010;SDS011;19370;48.562;9.196;2023-12-04T15:50:42;21.83;;;11.13;;
33010;SDS011;19370;48.562;9.196;2023-12-04T15:53:08;23.00;;;12.57;;
33010;SDS011;19370;48.562;9.196;2023-12-04T15:55:33;24.77;;;13.13;;
33010;SDS011;19370;48.562;9.196;2023-12-04T15:57:59;23.80;;;12.63;;
33010;SDS011;19370;48.562;9.196;2023-12-04T16:00:33;31.17;;;16.27;;
33010;SDS011;19370;48.562;9.196;2023-12-04T16:03:00;43.78;;;20.80;;
33010;SDS011;19370;48.562;9.196;2023-12-04T16:08:24;40.53;;;24.40;;
33010;SDS011;19370;48.562;9.196;2023-12-04T16:10:50;30.35;;;16.75;;
33010;SDS011;19370;48.562;9.196;2023-12-04T16:13:15;24.60;;;14.67;;
33010;SDS011;19370;48.562;9.196;2023-12-04T16:15:42;26.70;;;13.23;;
33010;SDS011;19370;48.562;9.196;2023-12-04T16:18:12;30.42;;;14.68;;
33010;SDS011;19370;48.562;9.196;2023-12-04T16:20:40;30.38;;;15.82;;
33010;SDS011;19370;48.562;9.196;2023-12-04T16:23:06;26.95;;;15.30;;
33010;SDS011;19370;48.562;9.196;2023-12-04T16:25:32;29.20;;;14.93;;
33010;SDS011;19370;48.562;9.196;2023-12-04T16:27:57;47.53;;;22.40;;
33010;SDS011;19370;48.562;9.196;2023-12-04T16:30:24;51.97;;;28.47;;
33010;SDS011;19370;48.562;9.196;2023-12-04T16:32:55;49.28;;;24.60;;
33010;SDS011;19370;48.562;9.196;2023-12-04T16:35:25;38.33;;;20.02;;
33010;SDS011;19370;48.562;9.196;2023-12-04T16:37:51;32.88;;;16.55;;
33010;SDS011;19370;48.562;9.196;2023-12-04T16:40:17;27.20;;;15.40;;
33010;SDS011;19370;48.562;9.196;2023-12-04T16:42:43;28.10;;;15.30;;
33010;SDS011;19370;48.562;9.196;2023-12-04T16:45:10;25.50;;;14.40;;
33010;SDS011;19370;48.562;9.196;2023-12-04T16:47:37;26.37;;;14.47;;
33010;SDS011;19370;48.562;9.196;2023-12-04T16:50:02;28.55;;;16.10;;
33010;SDS011;19370;48.562;9.196;2023-12-04T16:52:30;27.05;;;14.90;;
33010;SDS011;19370;48.562;9.196;2023-12-04T16:54:56;26.65;;;14.70;;
33010;SDS011;19370;48.562;9.196;2023-12-04T17:04:14;25.60;;;14.77;;
33010;SDS011;19370;48.562;9.196;2023-12-04T17:13:39;25.77;;;13.60;;
33010;SDS011;19370;48.562;9.196;2023-12-04T17:16:08;24.77;;;12.90;;
33010;SDS011;19370;48.562;9.196;2023-12-04T17:19:04;26.88;;;14.82;;
33010;SDS011;19370;48.562;9.196;2023-12-04T17:25:14;22.60;;;12.43;;
33010;SDS011;19370;48.562;9.196;2023-12-04T17:27:40;24.83;;;12.95;;
33010;SDS011;19370;48.562;9.196;2023-12-04T17:30:06;23.17;;;12.53;;
33010;SDS011;19370;48.562;9.196;2023-12-04T17:35:35;22.05;;;11.45;;
33010;SDS011;19370;48.562;9.196;2023-12-04T17:38:02;23.60;;;13.13;;
33010;SDS011;19370;48.562;9.196;2023-12-04T17:43:40;24.67;;;12.10;;
33010;SDS011;19370;48.562;9.196;2023-12-04T17:46:06;23.90;;;12.77;;
33010;SDS011;19370;48.562;9.196;2023-12-04T17:52:27;22.55;;;12.05;;
33010;SDS011;19370;48.562;9.196;2023-12-04T17:54:54;23.15;;;12.18;;
33010;SDS011;19370;48.562;9.196;2023-12-04T17:57:19;23.75;;;12.32;;
33010;SDS011;19370;48.562;9.196;2023-12-04T17:59:50;24.00;;;12.50;;
33010;SDS011;19370;48.562;9.196;2023-12-04T18:02:45;24.92;;;13.43;;
33010;SDS011;19370;48.562;9.196;2023-12-04T18:05:12;30.80;;;17.20;;
33010;SDS011;19370;48.562;9.196;2023-12-04T18:07:45;33.47;;;19.45;;
33010;SDS011;19370;48.562;9.196;2023-12-04T18:10:11;33.47;;;19.48;;
33010;SDS011;19370;48.562;9.196;2023-12-04T18:12:40;32.53;;;18.07;;
33010;SDS011;19370;48.562;9.196;2023-12-04T18:15:07;20.45;;;10.57;;
33010;SDS011;19370;48.562;9.196;2023-12-04T18:17:34;20.42;;;10.98;;
33010;SDS011;19370;48.562;9.196;2023-12-04T18:20:07;17.90;;;9.73;;
33010;SDS011;19370;48.562;9.196;2023-12-04T18:22:35;16.63;;;9.10;;
33010;SDS011;19370;48.562;9.196;2023-12-04T18:25:00;17.65;;;9.13;;
33010;SDS011;19370;48.562;9.196;2023-12-04T18:27:27;17.27;;;8.75;;
33010;SDS011;19370;48.562;9.196;2023-12-04T18:29:54;15.77;;;8.07;;
33010;SDS011;19370;48.562;9.196;2023-12-04T18:32:20;17.47;;;9.33;;
33010;SDS011;19370;48.562;9.196;2023-12-04T18:34:46;17.48;;;8.75;;
33010;SDS011;19370;48.562;9.196;2023-12-04T18:37:31;15.90;;;8.65;;
33010;SDS011;19370;48.562;9.196;2023-12-04T18:40:00;17.00;;;9.37;;
33010;SDS011;19370;48.562;9.196;2023-12-04T18:42:28;14.35;;;7.30;;
33010;SDS011;19370;48.562;9.196;2023-12-04T18:44:55;14.68;;;7.00;;
33010;SDS011;19370;48.562;9.196;2023-12-04T18:47:23;16.92;;;7.80;;
33010;SDS011;19370;48.562;9.196;2023-12-04T18:49:57;14.93;;;7.25;;
33010;SDS011;19370;48.562;9.196;2023-12-04T18:52:23;15.47;;;7.27;;
33010;SDS011;19370;48.562;9.196;2023-12-04T18:54:49;13.05;;;6.47;;
33010;SDS011;19370;48.562;9.196;2023-12-04T18:57:17;15.17;;;6.90;;
33010;SDS011;19370;48.562;9.196;2023-12-04T18:59:43;14.30;;;6.75;;
33010;SDS011;19370;48.562;9.196;2023-12-04T19:02:09;12.85;;;6.22;;
33010;SDS011;19370;48.562;9.196;2023-12-04T19:04:35;13.03;;;6.57;;
33010;SDS011;19370;48.562;9.196;2023-12-04T19:07:02;12.13;;;6.18;;
33010;SDS011;19370;48.562;9.196;2023-12-04T19:09:28;13.52;;;6.45;;
33010;SDS011;19370;48.562;9.196;2023-12-04T19:11:54;13.95;;;6.50;;
33010;SDS011;19370;48.562;9.196;2023-12-04T19:14:21;11.40;;;5.60;;
33010;SDS011;19370;48.562;9.196;2023-12-04T19:16:47;14.40;;;5.50;;
33010;SDS011;19370;48.562;9.196;2023-12-04T19:19:13;13.48;;;7.07;;
33010;SDS011;19370;48.562;9.196;2023-12-04T19:21:39;13.30;;;6.23;;
33010;SDS011;19370;48.562;9.196;2023-12-04T19:24:05;14.20;;;6.63;;
33010;SDS011;19370;48.562;9.196;2023-12-04T19:26:30;13.27;;;7.03;;
33010;SDS011;19370;48.562;9.196;2023-12-04T19:28:56;13.55;;;7.15;;
33010;SDS011;19370;48.562;9.196;2023-12-04T19:31:22;13.17;;;6.23;;
33010;SDS011;19370;48.562;9.196;2023-12-04T19:33:47;13.83;;;6.57;;
33010;SDS011;19370;48.562;9.196;2023-12-04T19:36:13;14.63;;;7.00;;